Time;durP1;ratioP1;P1;durP2;ratioP2;P2;SDS_P1;SDS_P2;PMS_P1;PMS_P2;Temp;Humidity;BMP_temperature;BMP_pressure;BME280_temperature;BME280_humidity;BME280_pressure;Samples;Min_cycle;Max_cycle;Signal;HPM_P1;HPM_P2
2020/12/21 00:01:50;;;;;;;35.23;19.40;;;2.20;92.40;;;;;;5083692;28;20177;-81
2020/12/21 00:04:18;;;;;;;33.07;19.30;;;2.20;92.40;;;;;;5072360;28;20212;-82
2020/12/21 00:06:52;;;;;;;37.17;20.63;;;2.20;92.40;;;;;;5069760;28;20222;-80
2020/12/21 00:09:19;;;;;;;38.20;20.10;;;2.30;92.50;;;;;;5062568;28;20222;-82
2020/12/21 00:11:48;;;;;;;38.37;20.47;;;2.20;92.40;;;;;;5070636;28;20561;-79
2020/12/21 00:14:17;;;;;;;35.33;18.70;;;2.20;92.40;;;;;;5049584;28;20185;-80
2020/12/21 00:16:47;;;;;;;36.57;19.33;;;2.20;92.40;;;;;;5071757;28;20247;-80
2020/12/21 00:19:18;;;;;;;33.07;18.93;;;2.20;92.40;;;;;;5063843;28;20240;-79
2020/12/21 00:21:47;;;;;;;31.93;18.00;;;2.30;92.30;;;;;;5073680;28;20200;-81
2020/12/21 00:24:15;;;;;;;34.13;18.80;;;2.20;92.20;;;;;;5053692;28;20239;-81
2020/12/21 00:26:47;;;;;;;33.90;18.17;;;2.10;92.20;;;;;;5048759;28;20239;-79
2020/12/21 00:29:15;;;;;;;38.47;18.63;;;2.10;92.30;;;;;;5029719;28;20230;-80
2020/12/21 00:31:45;;;;;;;32.90;18.70;;;2.10;92.30;;;;;;5063375;28;20204;-79
2020/12/21 00:34:13;;;;;;;37.83;19.33;;;2.10;92.40;;;;;;5044062;28;20205;-80
2020/12/21 00:39:39;;;;;;;38.40;20.10;;;2.20;92.50;;;;;;5044079;28;20229;-82
2020/12/21 00:42:08;;;;;;;40.50;19.93;;;2.10;92.60;;;;;;5045127;28;20409;-83
2020/12/21 00:44:36;;;;;;;42.33;21.20;;;2.10;92.60;;;;;;5042880;28;20182;-80
2020/12/21 00:47:05;;;;;;;38.57;19.47;;;2.20;92.60;;;;;;5040296;28;20270;-81
2020/12/21 00:49:33;;;;;;;36.90;20.53;;;2.20;92.60;;;;;;5043895;28;20223;-82
2020/12/21 00:52:02;;;;;;;36.27;19.47;;;2.10;92.60;;;;;;5041604;28;20194;-81
2020/12/21 00:54:29;;;;;;;38.40;19.67;;;2.10;92.60;;;;;;5041353;28;20207;-80
2020/12/21 00:56:57;;;;;;;36.60;19.03;;;2.20;92.60;;;;;;5026879;28;20225;-80
2020/12/21 00:59:25;;;;;;;37.33;19.83;;;2.10;92.60;;;;;;5018755;28;20206;-80
2020/12/21 01:01:52;;;;;;;37.03;19.77;;;2.20;92.70;;;;;;5020599;28;20286;-80
2020/12/21 01:04:21;;;;;;;39.43;19.70;;;2.10;92.70;;;;;;5031384;28;20222;-80
2020/12/21 01:06:53;;;;;;;39.87;20.57;;;2.10;92.70;;;;;;5029929;28;20210;-80
2020/12/21 01:09:21;;;;;;;38.57;19.53;;;2.20;92.70;;;;;;5022184;28;20304;-79
2020/12/21 01:11:48;;;;;;;35.30;18.97;;;2.20;92.70;;;;;;5027876;28;20298;-81
2020/12/21 01:14:16;;;;;;;42.87;20.57;;;2.20;92.70;;;;;;5018406;28;20203;-80
2020/12/21 01:16:44;;;;;;;32.20;17.57;;;2.20;92.70;;;;;;5026562;28;20199;-82
2020/12/21 01:19:11;;;;;;;35.53;17.97;;;2.20;92.60;;;;;;5019568;28;20195;-81
2020/12/21 01:21:40;;;;;;;35.70;17.67;;;2.20;92.50;;;;;;5015760;28;20677;-79
2020/12/21 01:24:07;;;;;;;35.77;18.43;;;2.20;92.50;;;;;;5016552;28;20199;-81
2020/12/21 01:26:35;;;;;;;37.43;18.73;;;2.20;92.50;;;;;;5014945;28;21041;-80
2020/12/21 01:29:03;;;;;;;35.47;19.00;;;2.20;92.60;;;;;;5017282;28;20250;-79
2020/12/21 01:31:30;;;;;;;34.23;18.23;;;2.20;92.50;;;;;;5019322;28;20232;-80
2020/12/21 01:34:12;;;;;;;33.27;18.10;;;2.20;92.50;;;;;;5004377;28;20209;-82
2020/12/21 01:36:43;;;;;;;36.73;18.13;;;2.20;92.50;;;;;;5016782;28;20918;-82
2020/12/21 01:39:10;;;;;;;35.03;17.87;;;2.20;92.60;;;;;;5019422;28;20221;-80
2020/12/21 01:41:38;;;;;;;34.10;18.47;;;2.20;92.60;;;;;;5017204;28;20694;-81
2020/12/21 01:44:05;;;;;;;32.67;17.80;;;2.10;92.60;;;;;;5024039;28;20545;-81
2020/12/21 01:46:33;;;;;;;32.03;17.73;;;2.20;92.60;;;;;;5016299;28;20209;-80
2020/12/21 01:49:01;;;;;;;33.27;18.83;;;2.20;92.60;;;;;;5014616;28;20292;-81
2020/12/21 01:51:29;;;;;;;35.90;19.13;;;2.20;92.60;;;;;;5014846;28;20511;-81
2020/12/21 01:54:00;;;;;;;34.30;17.80;;;2.20;92.60;;;;;;5017723;28;20282;-82
2020/12/21 01:56:27;;;;;;;32.23;17.17;;;2.20;92.60;;;;;;5014384;28;20288;-82
2020/12/21 01:58:55;;;;;;;34.10;17.77;;;2.20;92.70;;;;;;5016438;28;20527;-79
2020/12/21 02:01:23;;;;;;;30.67;17.73;;;2.20;92.70;;;;;;5017014;28;20239;-83
2020/12/21 02:03:51;;;;;;;37.47;19.10;;;2.20;92.70;;;;;;5015316;28;20549;-80
2020/12/21 02:06:19;;;;;;;31.50;18.13;;;2.20;92.70;;;;;;5015143;28;20202;-83
2020/12/21 02:08:46;;;;;;;32.97;19.03;;;2.20;92.70;;;;;;5013665;28;20913;-80
2020/12/21 02:11:15;;;;;;;29.87;17.20;;;2.20;92.70;;;;;;5041528;28;20302;-82
2020/12/21 02:13:42;;;;;;;33.33;17.03;;;2.20;92.70;;;;;;5036113;28;20323;-81
2020/12/21 02:16:14;;;;;;;31.33;17.27;;;2.20;92.60;;;;;;5052946;28;20203;-79
2020/12/21 02:18:43;;;;;;;31.10;16.60;;;2.30;92.60;;;;;;5039268;28;20569;-82
2020/12/21 02:21:12;;;;;;;30.67;16.53;;;2.30;92.50;;;;;;5022666;28;20207;-80
2020/12/21 02:23:39;;;;;;;26.37;16.47;;;2.30;92.50;;;;;;5017054;28;20298;-80
2020/12/21 02:26:08;;;;;;;29.30;16.80;;;2.30;92.50;;;;;;5018751;28;20205;-81
2020/12/21 02:28:35;;;;;;;31.90;17.37;;;2.30;92.50;;;;;;5013981;28;20249;-82
2020/12/21 02:31:03;;;;;;;35.13;17.10;;;2.30;92.40;;;;;;5001776;28;20836;-79
2020/12/21 02:33:30;;;;;;;31.63;17.37;;;2.30;92.40;;;;;;5006561;28;20690;-81
2020/12/21 02:35:58;;;;;;;29.50;16.70;;;2.30;92.40;;;;;;4999246;28;20253;-79
2020/12/21 02:38:27;;;;;;;27.50;15.80;;;2.30;92.40;;;;;;5029387;28;20191;-79
2020/12/21 02:40:54;;;;;;;29.30;16.90;;;2.40;92.40;;;;;;5017346;28;20199;-81
2020/12/21 02:43:23;;;;;;;29.10;17.00;;;2.30;92.40;;;;;;5011594;28;20302;-80
2020/12/21 02:45:51;;;;;;;32.50;17.67;;;2.30;92.40;;;;;;5002428;28;20227;-80
2020/12/21 02:48:18;;;;;;;29.90;16.17;;;2.30;92.40;;;;;;5013093;28;20203;-80
2020/12/21 02:50:46;;;;;;;31.27;16.97;;;2.30;92.40;;;;;;5003530;28;20525;-81
2020/12/21 02:53:14;;;;;;;28.67;16.97;;;2.40;92.40;;;;;;5001980;28;20222;-79
2020/12/21 02:55:43;;;;;;;31.60;17.23;;;2.40;92.40;;;;;;5030921;28;20203;-79
2020/12/21 02:58:11;;;;;;;33.90;17.73;;;2.40;92.50;;;;;;5027112;28;20276;-79
2020/12/21 03:00:38;;;;;;;29.97;17.47;;;2.40;92.50;;;;;;5009578;28;20199;-80
2020/12/21 03:03:10;;;;;;;31.57;16.87;;;2.30;92.50;;;;;;5014734;28;20852;-80
2020/12/21 03:05:38;;;;;;;34.47;16.53;;;2.40;92.50;;;;;;4999590;28;20222;-81
2020/12/21 03:08:07;;;;;;;29.70;17.33;;;2.40;92.50;;;;;;5002466;28;20664;-80
2020/12/21 03:10:36;;;;;;;30.40;17.23;;;2.40;92.50;;;;;;5003041;28;20346;-80
2020/12/21 03:13:06;;;;;;;29.20;18.00;;;2.40;92.50;;;;;;5001044;28;20569;-81
2020/12/21 03:15:34;;;;;;;31.37;17.67;;;2.40;92.50;;;;;;5010137;28;20207;-81
2020/12/21 03:18:01;;;;;;;32.47;17.47;;;2.40;92.50;;;;;;5010598;28;20240;-80
2020/12/21 03:20:29;;;;;;;27.30;16.27;;;2.40;92.50;;;;;;5009275;28;20203;-82
2020/12/21 03:22:57;;;;;;;32.83;17.37;;;2.30;92.50;;;;;;5012962;28;20191;-81
2020/12/21 03:25:24;;;;;;;30.33;17.43;;;2.40;92.40;;;;;;5002138;28;20212;-79
2020/12/21 03:27:52;;;;;;;32.37;17.63;;;2.40;92.40;;;;;;5002644;28;20209;-82
2020/12/21 03:30:20;;;;;;;32.67;17.53;;;2.40;92.50;;;;;;5016703;28;20230;-82
2020/12/21 03:32:51;;;;;;;34.10;18.30;;;2.60;92.60;;;;;;5009328;28;20752;-79
2020/12/21 03:35:26;;;;;;;32.67;18.47;;;2.40;92.60;;;;;;5013303;28;20269;-81
2020/12/21 03:37:54;;;;;;;32.93;17.30;;;2.30;92.60;;;;;;5039778;28;20201;-81
2020/12/21 03:40:21;;;;;;;32.73;17.77;;;2.40;92.60;;;;;;5028783;28;20207;-80
2020/12/21 03:42:49;;;;;;;31.47;17.33;;;2.40;92.60;;;;;;5027685;28;20291;-81
2020/12/21 03:45:17;;;;;;;33.93;17.93;;;2.40;92.60;;;;;;5022973;28;20206;-79
2020/12/21 03:47:45;;;;;;;32.03;17.07;;;2.40;92.60;;;;;;5007412;28;20208;-81
2020/12/21 03:50:13;;;;;;;37.77;19.00;;;2.40;92.60;;;;;;5009245;28;20257;-81
2020/12/21 03:52:42;;;;;;;34.27;18.57;;;2.40;92.60;;;;;;5016178;28;20202;-82
2020/12/21 03:55:09;;;;;;;34.90;19.10;;;2.40;92.60;;;;;;5011504;28;20289;-81
2020/12/21 03:57:37;;;;;;;30.80;18.73;;;2.40;92.60;;;;;;5014064;28;20813;-80
2020/12/21 04:00:06;;;;;;;36.27;19.37;;;2.40;92.60;;;;;;5020641;28;20282;-81
2020/12/21 04:02:34;;;;;;;31.07;17.53;;;2.40;92.60;;;;;;5019121;28;20525;-81
2020/12/21 04:05:04;;;;;;;34.07;17.97;;;2.40;92.70;;;;;;5013515;28;20219;-80
2020/12/21 04:07:33;;;;;;;29.57;17.90;;;2.50;92.70;;;;;;5016163;28;20195;-80
2020/12/21 04:10:01;;;;;;;35.03;18.93;;;2.40;92.70;;;;;;5000110;28;20229;-80
2020/12/21 04:12:29;;;;;;;36.10;19.50;;;2.40;92.70;;;;;;5015116;28;20427;-81
2020/12/21 04:14:56;;;;;;;37.47;20.17;;;2.40;92.70;;;;;;5015083;28;20199;-80
2020/12/21 04:17:24;;;;;;;34.63;19.10;;;2.30;92.70;;;;;;5027659;28;20195;-81
2020/12/21 04:19:51;;;;;;;35.63;19.47;;;2.40;92.80;;;;;;5026743;28;20199;-81
2020/12/21 04:22:20;;;;;;;40.57;19.97;;;2.40;92.80;;;;;;5016178;28;20665;-79
2020/12/21 04:24:47;;;;;;;40.93;19.87;;;2.30;92.80;;;;;;5015776;28;20207;-81
2020/12/21 04:27:15;;;;;;;38.13;20.07;;;2.30;92.80;;;;;;5018966;28;20206;-80
2020/12/21 04:29:43;;;;;;;37.77;19.50;;;2.40;92.90;;;;;;5014635;28;20226;-82
2020/12/21 04:32:10;;;;;;;38.53;20.83;;;2.40;92.90;;;;;;5025549;28;20608;-81
2020/12/21 04:34:38;;;;;;;39.80;20.93;;;2.40;92.90;;;;;;5021808;28;20206;-80
2020/12/21 04:37:05;;;;;;;38.43;20.30;;;2.40;92.90;;;;;;5014526;28;20432;-81
2020/12/21 04:39:34;;;;;;;38.03;20.83;;;2.30;92.90;;;;;;5016074;28;20208;-81
2020/12/21 04:42:01;;;;;;;39.80;20.70;;;2.20;92.90;;;;;;4999103;28;21057;-80
2020/12/21 04:44:29;;;;;;;37.83;21.37;;;2.40;93.00;;;;;;5026381;28;20257;-80
2020/12/21 04:46:57;;;;;;;38.07;20.77;;;2.30;93.00;;;;;;5016251;28;20198;-81
2020/12/21 04:49:26;;;;;;;44.47;21.87;;;2.30;93.00;;;;;;5021111;28;20636;-81
2020/12/21 04:51:53;;;;;;;43.43;21.27;;;2.30;93.00;;;;;;5030162;28;20207;-80
2020/12/21 04:54:21;;;;;;;42.90;21.77;;;2.30;93.00;;;;;;5038412;28;20226;-79
2020/12/21 04:56:50;;;;;;;43.53;20.37;;;2.30;93.00;;;;;;5038627;28;20187;-81
2020/12/21 04:59:17;;;;;;;43.93;22.97;;;2.30;93.00;;;;;;5040815;28;20199;-80
2020/12/21 05:01:45;;;;;;;42.13;22.30;;;2.30;93.00;;;;;;5040009;28;20195;-82
2020/12/21 05:04:15;;;;;;;41.23;21.23;;;2.30;93.10;;;;;;5045497;28;20414;-81
2020/12/21 05:06:50;;;;;;;43.60;21.97;;;2.30;93.00;;;;;;5042209;28;20199;-81
2020/12/21 05:09:21;;;;;;;38.60;20.93;;;2.40;93.10;;;;;;5043512;28;20222;-80
2020/12/21 05:11:57;;;;;;;42.80;22.80;;;2.30;93.10;;;;;;5027404;28;20823;-82
2020/12/21 05:14:33;;;;;;;44.70;22.60;;;2.30;93.10;;;;;;5037415;28;20190;-80
2020/12/21 05:17:11;;;;;;;44.47;22.90;;;2.30;93.10;;;;;;5024066;28;20516;-79
2020/12/21 05:19:39;;;;;;;40.27;21.40;;;2.20;93.10;;;;;;5015040;28;20203;-80
2020/12/21 05:22:11;;;;;;;47.57;23.50;;;2.30;93.10;;;;;;5004307;28;20214;-79
2020/12/21 05:24:39;;;;;;;41.80;21.47;;;2.30;93.10;;;;;;5018680;28;20218;-81
2020/12/21 05:27:12;;;;;;;46.67;23.27;;;2.30;93.20;;;;;;5013744;28;20199;-80
2020/12/21 05:29:41;;;;;;;50.50;24.93;;;2.30;93.20;;;;;;5018565;28;20501;-81
2020/12/21 05:32:12;;;;;;;46.40;23.67;;;2.30;93.20;;;;;;5037810;28;20496;-81
2020/12/21 05:34:40;;;;;;;43.73;22.63;;;2.30;93.20;;;;;;5034841;28;20201;-82
2020/12/21 05:37:13;;;;;;;48.23;23.90;;;2.30;93.20;;;;;;5017453;28;20610;-81
2020/12/21 05:39:50;;;;;;;46.97;23.77;;;2.40;93.20;;;;;;5027349;28;20207;-81
2020/12/21 05:42:18;;;;;;;52.20;24.50;;;2.30;93.20;;;;;;5036045;28;20237;-82
2020/12/21 05:44:51;;;;;;;54.73;24.93;;;2.30;93.20;;;;;;5042957;28;20198;-80
2020/12/21 05:47:19;;;;;;;49.27;24.13;;;2.30;93.30;;;;;;5036747;28;21246;-80
2020/12/21 05:49:53;;;;;;;57.80;25.43;;;2.30;93.30;;;;;;5032133;28;20467;-81
2020/12/21 05:52:28;;;;;;;51.13;23.63;;;2.30;93.30;;;;;;5020218;28;20665;-82
2020/12/21 05:54:57;;;;;;;49.77;24.13;;;2.20;93.30;;;;;;5017374;28;20301;-82
2020/12/21 05:57:27;;;;;;;54.17;25.03;;;2.30;93.30;;;;;;5008517;28;20203;-81
2020/12/21 05:59:57;;;;;;;52.93;25.60;;;2.30;93.30;;;;;;5023101;28;20199;-80
2020/12/21 06:02:25;;;;;;;50.67;25.63;;;2.20;93.30;;;;;;5029331;28;20212;-80
2020/12/21 06:05:04;;;;;;;63.37;25.90;;;2.30;93.30;;;;;;5024298;28;20211;-80
2020/12/21 06:07:33;;;;;;;50.57;23.73;;;2.30;93.30;;;;;;5034056;28;20189;-82
2020/12/21 06:10:05;;;;;;;53.33;25.10;;;2.30;93.30;;;;;;5020093;28;20601;-81
2020/12/21 06:12:50;;;;;;;55.80;25.50;;;2.30;93.30;;;;;;5017317;28;20665;-81
2020/12/21 06:15:23;;;;;;;55.93;24.73;;;2.30;93.30;;;;;;5023493;28;20510;-82
2020/12/21 06:17:51;;;;;;;54.67;26.60;;;2.30;93.30;;;;;;5032677;28;20253;-80
2020/12/21 06:20:21;;;;;;;54.97;26.87;;;2.30;93.30;;;;;;5038793;28;20283;-80
2020/12/21 06:22:49;;;;;;;64.50;28.43;;;2.30;93.30;;;;;;5015581;28;20665;-82
2020/12/21 06:25:24;;;;;;;55.87;25.63;;;2.20;93.30;;;;;;5011028;28;20876;-80
2020/12/21 06:27:55;;;;;;;54.63;25.63;;;2.30;93.30;;;;;;5009517;28;20213;-81
2020/12/21 06:30:30;;;;;;;51.80;25.53;;;2.30;93.30;;;;;;5014811;28;21108;-81
2020/12/21 06:33:01;;;;;;;53.40;26.30;;;2.20;93.30;;;;;;5024267;28;20554;-82
2020/12/21 06:35:30;;;;;;;58.87;27.57;;;2.30;93.30;;;;;;5021671;28;20497;-81
2020/12/21 06:38:01;;;;;;;54.17;24.87;;;2.30;93.30;;;;;;5012638;28;20202;-81
2020/12/21 06:40:33;;;;;;;62.97;26.57;;;2.30;93.30;;;;;;5005920;28;20242;-80
2020/12/21 06:43:13;;;;;;;57.73;27.60;;;2.30;93.30;;;;;;5010300;28;20706;-81
2020/12/21 06:45:43;;;;;;;53.57;26.57;;;2.30;93.30;;;;;;5018099;28;20225;-81
2020/12/21 06:48:20;;;;;;;51.20;26.37;;;2.30;93.40;;;;;;5013295;28;20493;-81
2020/12/21 06:50:48;;;;;;;58.47;26.13;;;2.40;93.30;;;;;;5033602;28;20229;-82
2020/12/21 06:53:16;;;;;;;59.93;26.97;;;2.30;93.30;;;;;;5004263;28;20318;-79
2020/12/21 06:55:44;;;;;;;57.47;25.73;;;2.40;93.30;;;;;;5009461;28;20212;-79
2020/12/21 06:58:13;;;;;;;56.90;27.90;;;2.30;93.30;;;;;;5008521;28;20478;-81
2020/12/21 07:00:40;;;;;;;57.03;26.17;;;2.30;93.20;;;;;;5009826;28;20253;-80
2020/12/21 07:03:08;;;;;;;56.40;26.47;;;2.30;93.20;;;;;;5004356;28;20222;-82
2020/12/21 07:05:36;;;;;;;58.80;26.87;;;2.30;93.20;;;;;;5011368;28;20207;-81
2020/12/21 07:08:05;;;;;;;57.90;26.37;;;2.30;93.20;;;;;;5011719;28;20203;-81
2020/12/21 07:10:33;;;;;;;52.67;25.93;;;2.30;93.20;;;;;;5012959;28;20711;-82
2020/12/21 07:13:01;;;;;;;55.83;26.73;;;2.40;93.20;;;;;;5015757;28;20210;-81
2020/12/21 07:15:31;;;;;;;52.33;26.23;;;2.30;93.10;;;;;;5010996;28;20206;-81
2020/12/21 07:17:59;;;;;;;55.73;26.90;;;2.30;93.10;;;;;;5006950;28;20204;-82
2020/12/21 07:20:26;;;;;;;52.50;25.97;;;2.30;93.10;;;;;;5006538;28;20567;-82
2020/12/21 07:22:55;;;;;;;51.23;25.90;;;2.30;93.10;;;;;;5007870;28;20214;-81
2020/12/21 07:25:23;;;;;;;54.70;25.83;;;2.40;93.20;;;;;;5023727;28;20219;-79
2020/12/21 07:27:51;;;;;;;57.37;26.30;;;2.40;93.20;;;;;;5026988;28;20266;-82
2020/12/21 07:30:23;;;;;;;57.40;26.83;;;2.40;93.10;;;;;;5018217;28;20262;-81
2020/12/21 07:32:52;;;;;;;56.10;27.70;;;2.40;93.10;;;;;;5009217;28;20291;-81
2020/12/21 07:35:22;;;;;;;60.13;28.03;;;2.50;93.10;;;;;;5005794;28;20313;-80
2020/12/21 07:38:09;;;;;;;53.70;25.67;;;2.40;93.10;;;;;;5004103;28;20669;-80
2020/12/21 07:40:40;;;;;;;54.93;25.43;;;2.50;93.00;;;;;;5007902;28;20207;-82
2020/12/21 07:43:17;;;;;;;51.53;26.13;;;2.50;93.00;;;;;;5003826;28;20294;-80
2020/12/21 07:45:47;;;;;;;50.27;23.77;;;2.50;93.00;;;;;;5010421;28;20213;-79
2020/12/21 07:48:16;;;;;;;54.83;28.07;;;2.50;93.00;;;;;;4998646;28;20552;-81
2020/12/21 07:50:45;;;;;;;50.07;26.57;;;2.50;92.90;;;;;;4997302;28;20318;-82
2020/12/21 07:53:14;;;;;;;61.97;26.33;;;2.40;92.90;;;;;;5008838;28;20217;-82
2020/12/21 07:55:53;;;;;;;50.83;25.33;;;2.60;92.90;;;;;;5005194;28;21021;-82
2020/12/21 07:58:20;;;;;;;52.93;25.47;;;2.60;92.90;;;;;;5023033;28;20191;-83
2020/12/21 08:00:56;;;;;;;51.70;26.40;;;2.60;92.80;;;;;;5027822;28;20207;-80
2020/12/21 08:03:25;;;;;;;51.43;24.90;;;2.60;92.80;;;;;;5024570;28;20782;-81
2020/12/21 08:06:09;;;;;;;53.17;25.00;;;2.60;92.70;;;;;;5006482;28;21043;-82
2020/12/21 08:08:40;;;;;;;53.07;25.63;;;2.60;92.70;;;;;;4996392;28;21019;-82
2020/12/21 08:11:20;;;;;;;48.13;25.40;;;2.60;92.70;;;;;;5025119;28;20231;-83
2020/12/21 08:13:49;;;;;;;48.67;24.33;;;2.60;92.60;;;;;;5026718;28;20395;-80
2020/12/21 08:16:24;;;;;;;47.00;25.37;;;2.60;92.60;;;;;;5008897;28;20333;-81
2020/12/21 08:18:53;;;;;;;47.90;24.93;;;2.60;92.60;;;;;;4993963;28;20248;-83
2020/12/21 08:21:23;;;;;;;55.67;27.10;;;2.80;92.60;;;;;;5002100;28;20313;-80
2020/12/21 08:23:54;;;;;;;50.07;25.10;;;2.60;92.60;;;;;;5013202;28;20458;-80
2020/12/21 08:26:23;;;;;;;51.93;25.43;;;2.70;92.60;;;;;;5008378;28;20278;-81
2020/12/21 08:28:51;;;;;;;54.73;26.00;;;2.70;92.60;;;;;;5006198;28;20210;-82
2020/12/21 08:31:21;;;;;;;57.57;25.87;;;2.70;92.60;;;;;;4996569;28;20288;-82
2020/12/21 08:34:01;;;;;;;57.03;27.47;;;2.70;92.60;;;;;;5003388;28;20404;-83
2020/12/21 08:36:32;;;;;;;55.73;27.50;;;2.70;92.60;;;;;;5002862;28;20704;-82
2020/12/21 08:39:08;;;;;;;52.00;25.67;;;2.70;92.60;;;;;;5011887;28;20235;-81
2020/12/21 08:41:38;;;;;;;51.47;26.23;;;2.70;92.60;;;;;;5001723;28;20196;-84
2020/12/21 08:44:08;;;;;;;51.30;26.83;;;2.80;92.60;;;;;;5003145;28;20306;-82
2020/12/21 08:46:35;;;;;;;54.33;25.50;;;2.90;92.60;;;;;;4998971;28;20861;-80
2020/12/21 08:49:07;;;;;;;54.23;26.03;;;2.70;92.50;;;;;;5001665;28;20207;-82
2020/12/21 08:51:34;;;;;;;54.13;26.60;;;2.90;92.50;;;;;;5004847;28;20228;-81
2020/12/21 08:54:02;;;;;;;55.10;26.80;;;2.80;92.40;;;;;;5022033;28;20215;-82
2020/12/21 08:56:29;;;;;;;51.27;26.43;;;2.90;92.40;;;;;;5005669;28;20203;-82
2020/12/21 08:58:57;;;;;;;52.60;26.17;;;2.90;92.30;;;;;;5005311;28;20620;-81
2020/12/21 09:01:25;;;;;;;55.37;26.07;;;2.90;92.40;;;;;;5007908;28;20220;-80
2020/12/21 09:03:52;;;;;;;47.97;26.03;;;2.90;92.30;;;;;;5015093;28;20457;-82
2020/12/21 09:06:23;;;;;;;52.07;26.77;;;2.90;92.30;;;;;;5026171;28;20207;-81
2020/12/21 09:08:57;;;;;;;51.73;27.10;;;2.90;92.20;;;;;;5002220;28;20833;-81
2020/12/21 09:11:26;;;;;;;53.10;26.93;;;2.90;92.20;;;;;;5006764;28;20648;-80
2020/12/21 09:13:54;;;;;;;51.10;25.97;;;2.90;92.30;;;;;;5001932;28;20311;-81
2020/12/21 09:16:23;;;;;;;54.83;27.27;;;2.90;92.20;;;;;;4996768;28;20200;-81
2020/12/21 09:18:53;;;;;;;54.67;27.47;;;2.90;92.20;;;;;;4995430;28;20236;-80
2020/12/21 09:21:23;;;;;;;55.27;27.27;;;2.90;92.20;;;;;;4999678;28;20457;-82
2020/12/21 09:23:52;;;;;;;57.13;27.77;;;3.00;92.20;;;;;;5013752;28;20200;-84
2020/12/21 09:26:20;;;;;;;54.90;26.40;;;2.90;92.20;;;;;;5020606;28;20212;-82
2020/12/21 09:28:48;;;;;;;53.93;27.10;;;3.00;92.30;;;;;;5027162;28;20291;-83
2020/12/21 09:31:18;;;;;;;59.03;27.57;;;3.00;92.30;;;;;;5023569;28;20229;-81
2020/12/21 09:33:48;;;;;;;55.37;27.13;;;3.00;92.10;;;;;;5003242;28;20584;-82
2020/12/21 09:36:17;;;;;;;58.40;28.23;;;2.90;92.10;;;;;;5013796;28;20607;-82
2020/12/21 09:38:46;;;;;;;60.33;28.33;;;3.00;92.20;;;;;;5000902;28;20392;-82
2020/12/21 09:41:17;;;;;;;55.93;28.43;;;3.00;92.20;;;;;;5007941;28;20586;-80
2020/12/21 09:43:46;;;;;;;57.40;26.87;;;3.00;92.20;;;;;;4998139;28;20280;-82
2020/12/21 09:46:18;;;;;;;54.87;26.87;;;3.00;92.20;;;;;;4999406;28;20357;-83
2020/12/21 09:48:46;;;;;;;52.57;27.27;;;3.00;92.20;;;;;;5001440;28;20200;-80
2020/12/21 09:51:14;;;;;;;56.37;27.77;;;3.00;92.20;;;;;;4990060;28;20638;-81
2020/12/21 09:53:44;;;;;;;55.20;28.00;;;3.00;92.10;;;;;;5006238;28;20203;-82
2020/12/21 09:56:13;;;;;;;54.70;27.30;;;3.00;92.00;;;;;;5012731;28;20446;-80
2020/12/21 09:58:42;;;;;;;54.37;26.43;;;3.10;92.10;;;;;;5003569;28;20498;-80
2020/12/21 10:01:10;;;;;;;56.80;26.83;;;3.00;92.00;;;;;;5017630;28;20239;-81
2020/12/21 10:03:38;;;;;;;54.80;27.43;;;3.10;92.10;;;;;;5012784;28;20203;-81
2020/12/21 10:06:08;;;;;;;54.87;26.37;;;3.10;92.10;;;;;;5001547;28;20204;-82
2020/12/21 10:08:35;;;;;;;49.73;26.43;;;3.10;92.00;;;;;;5000274;28;20197;-84
2020/12/21 10:11:05;;;;;;;50.00;26.63;;;3.30;92.10;;;;;;4996557;28;20265;-82
2020/12/21 10:13:38;;;;;;;49.57;26.30;;;3.10;92.00;;;;;;5015017;28;20221;-83
2020/12/21 10:16:05;;;;;;;52.70;25.67;;;3.20;92.10;;;;;;4996511;28;20207;-80
2020/12/21 10:18:33;;;;;;;56.17;27.47;;;3.20;92.00;;;;;;5016826;28;20208;-82
2020/12/21 10:21:01;;;;;;;53.37;28.07;;;3.20;92.00;;;;;;4999580;28;20205;-80
2020/12/21 10:23:30;;;;;;;53.60;27.23;;;3.40;91.90;;;;;;5010715;28;20692;-80
2020/12/21 10:26:00;;;;;;;51.00;27.37;;;3.30;91.90;;;;;;5003201;28;20199;-82
2020/12/21 10:28:29;;;;;;;54.63;26.93;;;3.30;91.90;;;;;;5004374;28;20197;-81
2020/12/21 10:30:58;;;;;;;56.00;27.87;;;3.30;91.90;;;;;;5007404;28;20241;-83
2020/12/21 10:33:26;;;;;;;49.00;26.40;;;3.30;91.80;;;;;;5001577;28;20735;-83
2020/12/21 10:35:53;;;;;;;53.60;28.17;;;3.40;91.90;;;;;;5018444;28;20205;-82
2020/12/21 10:38:21;;;;;;;50.50;26.83;;;3.60;91.90;;;;;;5013810;28;20223;-81
2020/12/21 10:40:49;;;;;;;53.73;27.93;;;3.30;91.80;;;;;;5012223;28;20236;-84
2020/12/21 10:43:17;;;;;;;54.70;27.47;;;3.40;91.80;;;;;;5001410;28;20234;-82
2020/12/21 10:45:45;;;;;;;56.33;27.27;;;3.40;91.80;;;;;;4995261;28;20213;-82
2020/12/21 10:48:14;;;;;;;47.07;26.33;;;3.50;91.80;;;;;;4999076;28;20217;-81
2020/12/21 10:50:45;;;;;;;52.87;27.83;;;3.40;91.60;;;;;;5023345;28;20243;-82
2020/12/21 10:53:13;;;;;;;48.03;25.27;;;3.50;91.60;;;;;;5023763;28;20185;-84
2020/12/21 10:55:42;;;;;;;52.33;28.23;;;3.50;91.70;;;;;;5034024;28;20255;-83
2020/12/21 10:58:10;;;;;;;51.50;26.97;;;3.40;91.70;;;;;;5001114;28;20215;-83
2020/12/21 11:00:38;;;;;;;46.13;25.23;;;3.40;91.70;;;;;;5005238;28;20232;-81
2020/12/21 11:03:06;;;;;;;47.93;25.30;;;3.50;91.70;;;;;;4999981;28;20274;-80
2020/12/21 11:05:35;;;;;;;48.97;24.97;;;3.50;91.70;;;;;;5017742;28;20313;-83
2020/12/21 11:08:06;;;;;;;47.00;26.10;;;3.60;91.70;;;;;;5007389;28;20444;-81
2020/12/21 11:10:35;;;;;;;51.43;25.70;;;3.50;91.70;;;;;;5006225;28;20222;-83
2020/12/21 11:13:03;;;;;;;43.97;25.03;;;3.60;91.60;;;;;;5008117;28;21842;-81
2020/12/21 11:15:31;;;;;;;46.23;24.50;;;3.70;91.60;;;;;;5000009;28;20210;-81
2020/12/21 11:17:59;;;;;;;49.73;25.70;;;3.70;91.60;;;;;;5015328;28;20466;-83
2020/12/21 11:20:26;;;;;;;46.80;24.57;;;3.70;91.50;;;;;;5017626;28;20198;-83
2020/12/21 11:22:55;;;;;;;50.40;25.53;;;3.80;91.50;;;;;;5024685;28;20201;-83
2020/12/21 11:25:23;;;;;;;50.53;25.50;;;3.80;91.50;;;;;;5025182;28;20254;-83
2020/12/21 11:27:50;;;;;;;46.73;25.53;;;3.80;91.40;;;;;;5023399;28;20189;-81
2020/12/21 11:30:18;;;;;;;47.80;25.93;;;3.90;91.40;;;;;;5010685;28;20210;-80
2020/12/21 11:32:46;;;;;;;45.57;26.07;;;3.90;91.40;;;;;;5037382;28;20629;-83
2020/12/21 11:35:14;;;;;;;48.90;24.80;;;4.00;91.30;;;;;;5022390;28;20202;-81
2020/12/21 11:37:43;;;;;;;45.40;25.63;;;4.00;91.30;;;;;;5021639;28;20426;-82
2020/12/21 11:40:25;;;;;;;39.43;23.67;;;4.20;91.30;;;;;;5025415;28;20198;-82
2020/12/21 11:42:53;;;;;;;41.53;23.33;;;4.20;91.00;;;;;;5018416;28;20213;-82
2020/12/21 11:45:20;;;;;;;41.80;24.80;;;4.30;91.00;;;;;;5007754;28;20649;-81
2020/12/21 11:47:48;;;;;;;44.73;23.83;;;4.30;90.80;;;;;;5013477;28;20310;-82
2020/12/21 11:50:16;;;;;;;45.13;25.37;;;4.40;90.80;;;;;;5014517;28;20229;-82
2020/12/21 11:52:43;;;;;;;45.53;24.87;;;4.30;90.90;;;;;;5006727;28;20630;-83
2020/12/21 11:55:11;;;;;;;42.90;24.87;;;4.20;90.90;;;;;;5016548;28;20217;-82
2020/12/21 11:57:39;;;;;;;44.73;24.17;;;4.30;90.90;;;;;;5014276;28;20241;-81
2020/12/21 12:00:07;;;;;;;43.40;25.10;;;4.30;90.80;;;;;;5006502;28;20736;-81
2020/12/21 12:02:35;;;;;;;42.87;23.87;;;4.30;90.90;;;;;;5010821;28;20630;-84
2020/12/21 12:05:04;;;;;;;43.40;24.77;;;4.20;90.90;;;;;;5002067;28;20544;-81
2020/12/21 12:07:32;;;;;;;46.63;25.43;;;4.20;91.00;;;;;;5006392;28;20194;-82
2020/12/21 12:09:59;;;;;;;42.40;24.67;;;4.20;91.00;;;;;;5014797;28;20229;-81
2020/12/21 12:12:27;;;;;;;41.53;24.23;;;4.20;91.00;;;;;;5026485;28;20206;-81
2020/12/21 12:14:56;;;;;;;44.00;24.30;;;4.20;91.00;;;;;;5012500;28;20202;-81
2020/12/21 12:17:23;;;;;;;44.80;23.80;;;4.20;91.00;;;;;;5014535;28;20310;-80
2020/12/21 12:19:51;;;;;;;45.53;24.13;;;4.20;91.00;;;;;;5025685;28;20474;-82
2020/12/21 12:22:22;;;;;;;46.50;25.50;;;4.20;91.00;;;;;;5033961;28;20193;-81
2020/12/21 12:24:55;;;;;;;42.40;23.83;;;4.20;91.00;;;;;;5023431;28;20545;-81
2020/12/21 12:27:23;;;;;;;42.00;24.90;;;4.20;90.90;;;;;;5011606;28;20207;-82
2020/12/21 12:29:51;;;;;;;42.67;24.20;;;4.20;91.00;;;;;;5014332;28;20205;-81
2020/12/21 12:32:22;;;;;;;48.10;25.47;;;4.20;91.10;;;;;;5017336;28;20268;-81
2020/12/21 12:34:58;;;;;;;47.73;25.57;;;4.20;91.10;;;;;;5005549;28;20649;-82
2020/12/21 12:37:26;;;;;;;45.43;25.17;;;4.20;91.10;;;;;;5013759;28;20287;-81
2020/12/21 12:39:54;;;;;;;45.67;24.80;;;4.10;91.10;;;;;;5021674;28;20262;-81
2020/12/21 12:42:23;;;;;;;45.27;24.87;;;4.20;91.20;;;;;;5015781;28;20218;-84
2020/12/21 12:44:56;;;;;;;48.60;25.23;;;4.20;91.20;;;;;;5021811;28;20230;-82
2020/12/21 12:47:25;;;;;;;44.20;25.50;;;4.20;91.20;;;;;;5016071;28;20601;-80
2020/12/21 12:49:53;;;;;;;47.23;25.90;;;4.20;91.10;;;;;;5013579;28;20210;-82